Time;durP1;ratioP1;P1;durP2;ratioP2;P2;SDS_P1;SDS_P2;PMS_P1;PMS_P2;Temp;Humidity;BMP_temperature;BMP_pressure;BME280_temperature;BME280_humidity;BME280_pressure;Samples;Min_cycle;Max_cycle;Signal;HPM_P1;HPM_P2
2021/11/11 00:01:42;;;;;;;;;;;;;;;3.95;73.84;100326.66;4985853;28;19940;-83
2021/11/11 00:04:10;;;;;;;;;;;;;;;3.95;73.70;100338.91;4968297;28;19918;-83
2021/11/11 00:06:35;;;;;;;;;;;;;;;3.96;73.65;100340.66;4967263;28;20131;-83
2021/11/11 00:09:01;;;;;;;;;;;;;;;3.98;73.76;100333.63;4985364;28;20025;-83
2021/11/11 00:11:26;;;;;;;;;;;;;;;4.01;73.90;100328.38;4983913;28;20381;-83
2021/11/11 00:13:51;;;;;;;;;;;;;;;3.99;73.71;100330.16;4985302;28;20009;-83
2021/11/11 00:16:16;;;;;;;;;;;;;;;3.98;73.86;100317.91;4985684;28;19980;-83
2021/11/11 00:18:42;;;;;;;;;;;;;;;4.00;73.86;100310.88;4985551;28;19947;-83
2021/11/11 00:21:08;;;;;;;;;;;;;;;4.01;73.75;100317.88;4985170;28;19922;-83
2021/11/11 00:23:33;;;;;;;;;;;;;;;4.06;74.03;100323.97;4985389;28;19917;-83
2021/11/11 00:25:58;;;;;;;;;;;;;;;4.04;74.01;100322.22;4985028;28;20005;-83
2021/11/11 00:28:23;;;;;;;;;;;;;;;4.03;74.11;100312.63;4983862;28;19921;-83
2021/11/11 00:30:49;;;;;;;;;;;;;;;4.05;74.01;100314.34;4985255;28;20362;-83
2021/11/11 00:33:14;;;;;;;;;;;;;;;4.02;73.83;100295.16;4985018;28;19922;-83
2021/11/11 00:35:39;;;;;;;;;;;;;;;4.07;73.83;100289.00;4967794;28;19956;-83
2021/11/11 00:38:05;;;;;;;;;;;;;;;4.06;73.79;100305.59;4984608;28;19933;-85
2021/11/11 00:40:30;;;;;;;;;;;;;;;4.07;73.80;100289.00;4985224;28;19918;-83
2021/11/11 00:42:56;;;;;;;;;;;;;;;4.12;73.79;100296.81;4983046;28;20037;-83
2021/11/11 04:16:02;;;;;;;;;;;;;;;1.57;91.28;100323.72;4955274;28;19933;-82
2021/11/11 04:18:27;;;;;;;;;;;;;;;1.40;90.29;100325.41;4956329;28;19933;-82
2021/11/11 04:20:53;;;;;;;;;;;;;;;1.25;89.72;100321.88;4955102;28;19918;-82
2021/11/11 04:23:18;;;;;;;;;;;;;;;1.16;89.12;100315.75;4955328;28;20333;-82
2021/11/11 04:25:55;;;;;;;;;;;;;;;1.17;89.99;100310.56;4971122;28;19919;-81
2021/11/11 04:28:26;;;;;;;;;;;;;;;1.15;91.54;100312.28;4969752;28;19918;-82
2021/11/11 04:30:56;;;;;;;;;;;;;;;1.47;94.62;100308.91;4956309;28;20437;-82
2021/11/11 04:33:22;;;;;;;;;;;;;;;1.86;97.22;100307.22;4956195;28;19918;-82
2021/11/11 04:35:51;;;;;;;;;;;;;;;2.06;99.33;100306.34;4954714;28;19926;-82
2021/11/11 04:38:34;;;;;;;;;;;;;;;2.08;100.00;100312.47;4955632;28;19923;-82
2021/11/11 04:41:28;;;;;;;;;;;;;;;2.13;100.00;100302.88;4954618;28;19973;-82
2021/11/11 04:44:05;;;;;;;;;;;;;;;2.15;100.00;100319.44;4969426;28;19922;-82
2021/11/11 05:05:04;;;;;;;;;;;;;;;2.80;100.00;100345.53;4955458;28;19962;-82
2021/11/11 05:07:29;;;;;;;;;;;;;;;2.76;100.00;100347.31;4954160;28;19954;-83
2021/11/11 05:09:54;;;;;;;;;;;;;;;2.85;100.00;100344.63;4953847;28;19965;-83
2021/11/11 05:12:20;;;;;;;;;;;;;;;2.71;100.00;100344.69;4965593;28;19918;-82
2021/11/11 05:14:45;;;;;;;;;;;;;;;2.60;100.00;100348.19;4971952;28;20311;-83
2021/11/11 05:17:10;;;;;;;;;;;;;;;2.60;100.00;100356.03;4973223;28;20346;-83
2021/11/11 05:19:37;;;;;;;;;;;;;;;2.68;100.00;100359.50;4974561;28;19918;-83
2021/11/11 05:22:03;;;;;;;;;;;;;;;2.58;100.00;100350.78;4973412;28;19948;-83
2021/11/11 05:24:28;;;;;;;;;;;;;;;2.56;100.00;100360.41;4973230;28;20016;-83
2021/11/11 05:26:54;;;;;;;;;;;;;;;2.58;100.00;100357.78;4974241;28;19914;-83
2021/11/11 05:29:20;;;;;;;;;;;;;;;2.61;99.75;100358.66;4973061;28;19922;-83
2021/11/11 05:31:45;;;;;;;;;;;;;;;2.76;98.42;100360.38;4972989;28;19925;-82
2021/11/11 05:34:10;;;;;;;;;;;;;;;2.70;97.33;100363.88;4972765;28;19953;-82
2021/11/11 05:36:35;;;;;;;;;;;;;;;2.79;96.36;100356.88;4968559;28;19922;-82
2021/11/11 05:39:01;;;;;;;;;;;;;;;2.68;95.11;100355.16;4972640;28;20293;-82
2021/11/11 05:41:26;;;;;;;;;;;;;;;2.65;94.44;100360.41;4972552;28;19918;-82
2021/11/11 05:43:51;;;;;;;;;;;;;;;2.68;93.24;100360.41;4971390;28;19929;-82
2021/11/11 05:46:16;;;;;;;;;;;;;;;2.64;92.80;100357.78;4973964;28;20387;-83
2021/11/11 05:48:41;;;;;;;;;;;;;;;2.68;92.19;100352.53;4972788;28;19922;-82
2021/11/11 05:51:07;;;;;;;;;;;;;;;2.64;91.40;100358.63;4972653;28;19925;-82
2021/11/11 05:53:32;;;;;;;;;;;;;;;2.70;90.95;100363.88;4973796;28;19925;-82
2021/11/11 09:00:19;;;;;;;;;;;;;;;2.96;77.09;100486.00;5568352;23;19934;-82
2021/11/11 09:02:45;;;;;;;;;;;;;;;2.94;77.08;100492.13;4992580;28;19980;-82
2021/11/11 09:05:10;;;;;;;;;;;;;;;2.99;76.70;100492.97;5001745;28;20407;-82
2021/11/11 09:07:39;;;;;;;;;;;;;;;2.98;76.97;100479.00;4992974;28;20049;-82
2021/11/11 09:10:06;;;;;;;;;;;;;;;2.96;76.90;100486.00;4991420;28;20380;-83
2021/11/11 09:12:31;;;;;;;;;;;;;;;3.06;77.01;100481.63;4992443;28;20020;-82
2021/11/11 09:14:56;;;;;;;;;;;;;;;3.01;76.47;100488.59;4992603;28;20057;-82
2021/11/11 09:17:22;;;;;;;;;;;;;;;3.01;76.84;100484.25;4993301;28;19918;-82
2021/11/11 09:19:47;;;;;;;;;;;;;;;3.06;76.49;100484.25;4992421;28;19936;-82
2021/11/11 09:22:12;;;;;;;;;;;;;;;3.04;76.16;100486.84;4993349;28;20373;-82
2021/11/11 09:24:39;;;;;;;;;;;;;;;3.05;76.19;100487.75;4993930;28;19925;-82
2021/11/11 09:27:04;;;;;;;;;;;;;;;3.13;76.28;100490.34;4992005;28;20013;-82
2021/11/11 09:29:29;;;;;;;;;;;;;;;3.09;75.98;100477.28;4992523;28;20032;-82
2021/11/11 09:31:54;;;;;;;;;;;;;;;3.14;76.33;100479.84;4993378;28;20300;-82
2021/11/11 09:34:20;;;;;;;;;;;;;;;3.18;76.47;100475.50;4993405;28;19921;-82
2021/11/11 09:36:45;;;;;;;;;;;;;;;3.19;76.06;100487.72;4993084;28;20012;-83
2021/11/11 09:39:10;;;;;;;;;;;;;;;3.22;76.38;100480.75;4992455;28;20400;-82
2021/11/11 09:41:38;;;;;;;;;;;;;;;3.18;76.16;100478.13;4993317;28;20053;-82
2021/11/11 09:44:04;;;;;;;;;;;;;;;3.19;76.24;100492.94;4991880;28;19921;-82
2021/11/11 09:46:29;;;;;;;;;;;;;;;3.18;76.38;100489.47;4993196;28;19948;-82
2021/11/11 09:48:54;;;;;;;;;;;;;;;3.29;76.72;100492.06;4992869;28;19983;-80
2021/11/11 09:51:21;;;;;;;;;;;;;;;3.44;77.68;100484.16;4993244;28;19922;-83
2021/11/11 09:53:59;;;;;;;;;;;;;;;3.43;77.30;100477.19;4993191;28;19979;-83
2021/11/11 09:59:08;;;;;;;;;;;;;;;3.35;76.95;100475.47;4992270;28;19932;-84
2021/11/11 10:01:34;;;;;;;;;;;;;;;3.30;76.51;100475.47;4983492;28;20300;-83
2021/11/11 10:03:59;;;;;;;;;;;;;;;3.35;76.58;100472.84;4991448;28;20385;-84
2021/11/11 10:06:26;;;;;;;;;;;;;;;3.34;76.29;100474.59;4993092;28;19924;-83
2021/11/11 10:08:52;;;;;;;;;;;;;;;3.35;76.51;100476.34;4992744;28;19918;-82
2021/11/11 10:11:29;;;;;;;;;;;;;;;3.37;76.26;100474.59;4993029;28;19922;-83
2021/11/11 10:13:56;;;;;;;;;;;;;;;3.39;76.39;100462.34;4991522;28;19928;-83
2021/11/11 10:16:21;;;;;;;;;;;;;;;3.40;76.41;100460.63;4991750;28;19937;-83
2021/11/11 10:18:52;;;;;;;;;;;;;;;3.40;76.37;100456.25;4992438;28;19922;-83
2021/11/11 10:21:23;;;;;;;;;;;;;;;3.41;76.18;100457.97;4992388;28;19925;-82
2021/11/11 10:23:48;;;;;;;;;;;;;;;3.42;76.40;100451.88;4991588;28;19922;-83
2021/11/11 10:26:22;;;;;;;;;;;;;;;3.41;76.58;100457.09;4992822;28;19973;-83
2021/11/11 10:28:48;;;;;;;;;;;;;;;3.41;76.32;100452.72;4991876;28;19922;-83
2021/11/11 10:31:14;;;;;;;;;;;;;;;3.46;76.40;100450.09;4991075;28;19928;-83
2021/11/11 10:34:04;;;;;;;;;;;;;;;3.45;76.55;100441.38;4989905;28;21328;-82
2021/11/11 10:36:44;;;;;;;;;;;;;;;3.47;76.39;100440.50;4991177;28;19929;-83
2021/11/11 10:39:14;;;;;;;;;;;;;;;3.47;76.33;100436.13;4991472;28;19918;-83
2021/11/11 10:41:39;;;;;;;;;;;;;;;3.45;76.55;100438.75;4991121;28;20361;-83
2021/11/11 10:44:18;;;;;;;;;;;;;;;3.52;76.77;100444.84;4991502;28;19945;-83
2021/11/11 10:46:47;;;;;;;;;;;;;;;3.46;76.63;100450.09;4991214;28;20571;-82
2021/11/11 10:49:21;;;;;;;;;;;;;;;3.49;76.56;100454.47;4990395;28;20435;-83
2021/11/11 10:51:46;;;;;;;;;;;;;;;3.53;76.60;100450.97;4991082;28;19922;-82
2021/11/11 10:54:12;;;;;;;;;;;;;;;3.48;75.93;100460.56;4990021;28;20285;-83
2021/11/11 10:56:45;;;;;;;;;;;;;;;3.48;76.57;100451.00;4992490;28;19966;-83
2021/11/11 10:59:11;;;;;;;;;;;;;;;3.51;76.56;100452.72;4989656;28;19921;-83
2021/11/11 11:01:36;;;;;;;;;;;;;;;3.51;76.26;100447.47;4990987;28;19922;-83
2021/11/11 11:04:02;;;;;;;;;;;;;;;3.55;76.77;100447.44;4991186;28;19922;-83
2021/11/11 11:06:28;;;;;;;;;;;;;;;3.53;76.69;100450.97;4990842;28;19942;-83
2021/11/11 11:08:57;;;;;;;;;;;;;;;3.54;76.79;100447.47;4990639;28;20368;-83
2021/11/11 11:11:34;;;;;;;;;;;;;;;3.56;76.93;100445.72;4989774;28;19918;-83
2021/11/11 11:14:00;;;;;;;;;;;;;;;3.57;76.81;100435.19;4991518;28;19969;-82
2021/11/11 11:16:32;;;;;;;;;;;;;;;3.55;76.98;100433.50;4989894;28;19925;-83
2021/11/11 11:19:08;;;;;;;;;;;;;;;3.59;76.96;100436.09;4990728;28;20452;-83
2021/11/11 11:21:41;;;;;;;;;;;;;;;3.58;76.95;100436.09;4991157;28;20007;-83
2021/11/11 11:24:11;;;;;;;;;;;;;;;3.60;77.05;100436.94;4997825;28;20284;-83
2021/11/11 11:26:43;;;;;;;;;;;;;;;3.60;77.13;100436.94;4992920;28;19925;-86
2021/11/11 11:31:49;;;;;;;;;;;;;;;3.60;76.92;100423.84;4995091;28;21657;-83
2021/11/11 11:34:34;;;;;;;;;;;;;;;3.56;77.00;100424.75;4994450;28;19926;-83
2021/11/11 11:37:04;;;;;;;;;;;;;;;3.62;77.22;100420.34;4994861;28;20002;-83
2021/11/11 11:39:32;;;;;;;;;;;;;;;3.62;77.26;100422.09;5000497;28;19930;-83
2021/11/11 11:42:05;;;;;;;;;;;;;;;3.63;77.23;100410.75;4994124;28;19926;-84
2021/11/11 11:44:32;;;;;;;;;;;;;;;3.64;77.12;100407.25;4993190;28;19995;-82
2021/11/11 11:47:04;;;;;;;;;;;;;;;3.67;77.41;100412.47;4992755;28;20468;-83
2021/11/11 11:49:29;;;;;;;;;;;;;;;3.66;77.39;100410.72;4994253;28;20016;-83
2021/11/11 11:51:55;;;;;;;;;;;;;;;3.66;77.56;100402.88;4995164;28;20012;-83
2021/11/11 11:54:35;;;;;;;;;;;;;;;3.68;77.62;100398.47;4995541;28;20355;-82
2021/11/11 11:57:06;;;;;;;;;;;;;;;3.73;77.61;100398.44;4995042;28;19976;-82
2021/11/11 11:59:37;;;;;;;;;;;;;;;3.71;77.68;100398.47;4993925;28;19932;-82
2021/11/11 12:07:11;;;;;;;;;;;;;;;3.72;77.78;100388.84;4994468;28;19936;-83
2021/11/11 12:18:22;;;;;;;;;;;;;;;3.78;78.30;100392.31;4975545;28;19926;-82
2021/11/11 12:39:49;;;;;;;;;;;;;;;3.90;78.59;100373.03;4994811;28;19928;-82
2021/11/11 12:42:25;;;;;;;;;;;;;;;3.93;78.86;100372.13;4992958;28;20020;-83
2021/11/11 12:45:02;;;;;;;;;;;;;;;3.92;78.95;100373.88;4992720;28;20013;-83
2021/11/11 12:47:36;;;;;;;;;;;;;;;3.96;78.91;100367.75;4998242;28;20454;-83
2021/11/11 12:50:21;;;;;;;;;;;;;;;4.02;79.10;100361.59;4994412;28;19926;-82
2021/11/11 12:52:46;;;;;;;;;;;;;;;4.18;79.96;100367.59;4993847;28;19929;-82
2021/11/11 12:55:14;;;;;;;;;;;;;;;4.34;81.51;100363.06;4993251;28;19971;-82
2021/11/11 12:58:00;;;;;;;;;;;;;;;4.46;82.97;100354.25;4993807;28;19922;-82
2021/11/11 13:00:30;;;;;;;;;;;;;;;4.52;84.36;100357.69;4991050;28;19922;-83
2021/11/11 13:02:55;;;;;;;;;;;;;;;4.53;85.31;100356.81;4993779;28;20297;-83
2021/11/11 13:05:40;;;;;;;;;;;;;;;4.61;86.13;100353.22;4993160;28;19929;-82
2021/11/11 13:08:06;;;;;;;;;;;;;;;4.64;86.58;100355.81;4993634;28;19917;-82
2021/11/11 13:10:31;;;;;;;;;;;;;;;4.67;87.07;100358.44;4994408;28;20049;-83
2021/11/11 13:13:10;;;;;;;;;;;;;;;4.63;87.56;100356.72;4993497;28;20399;-82
2021/11/11 13:15:41;;;;;;;;;;;;;;;4.58;87.81;100355.88;4990747;28;19932;-83
2021/11/11 13:18:06;;;;;;;;;;;;;;;4.48;87.97;100349.84;4992366;28;19956;-82
2021/11/11 13:20:40;;;;;;;;;;;;;;;4.41;88.58;100354.28;4993970;28;20404;-83
2021/11/11 13:23:19;;;;;;;;;;;;;;;4.32;89.47;100368.38;4992070;28;20364;-83
2021/11/11 13:26:26;;;;;;;;;;;;;;;4.28;91.05;100357.91;4993220;28;20061;-83
2021/11/11 15:04:42;;;;;;;;;;;;;;;4.63;100.00;100375.09;4992396;28;19972;-83
2021/11/11 16:25:09;;;;;;;;;;;;;;;2.50;85.85;100382.19;4994752;28;20012;-83
2021/11/11 16:27:34;;;;;;;;;;;;;;;2.51;85.37;100383.94;4992665;28;19921;-82
2021/11/11 16:30:02;;;;;;;;;;;;;;;2.45;85.75;100377.84;4993800;28;19929;-82
2021/11/11 16:32:27;;;;;;;;;;;;;;;2.39;86.07;100388.31;4992372;28;19924;-83
2021/11/11 16:34:52;;;;;;;;;;;;;;;2.50;85.98;100387.41;4992719;28;20276;-83
2021/11/11 16:37:18;;;;;;;;;;;;;;;2.45;85.64;100386.56;4992572;28;19926;-82
2021/11/11 16:39:43;;;;;;;;;;;;;;;2.52;85.10;100385.69;4994760;28;20017;-83
2021/11/11 16:42:09;;;;;;;;;;;;;;;2.57;85.36;100374.34;4987619;28;20016;-82
2021/11/11 16:44:34;;;;;;;;;;;;;;;2.33;85.13;100381.31;4991955;28;19918;-83
2021/11/11 16:47:02;;;;;;;;;;;;;;;2.39;85.29;100390.94;4987468;28;20005;-82
2021/11/11 16:49:30;;;;;;;;;;;;;;;2.39;85.20;100394.41;4991873;28;19941;-83
2021/11/11 16:51:56;;;;;;;;;;;;;;;2.36;84.91;100395.28;4993108;28;19925;-82
2021/11/11 16:54:21;;;;;;;;;;;;;;;2.34;85.10;100402.25;4994494;28;19925;-83
2021/11/11 16:56:46;;;;;;;;;;;;;;;2.27;85.17;100395.28;4986032;28;19918;-83
2021/11/11 16:59:12;;;;;;;;;;;;;;;2.29;85.24;100403.13;4991039;28;19933;-83
2021/11/11 17:01:37;;;;;;;;;;;;;;;2.24;85.06;100400.50;4992441;28;20557;-83
2021/11/11 17:04:03;;;;;;;;;;;;;;;2.19;85.02;100404.88;4986649;28;19921;-83
2021/11/11 17:06:29;;;;;;;;;;;;;;;2.35;84.96;100409.22;4992595;28;19969;-83
2021/11/11 17:08:54;;;;;;;;;;;;;;;2.34;84.45;100412.72;4993974;28;20326;-82
2021/11/11 17:11:20;;;;;;;;;;;;;;;2.23;84.74;100403.13;4992361;28;19926;-83
2021/11/11 17:13:45;;;;;;;;;;;;;;;2.23;84.54;100405.72;4993711;28;19928;-83
2021/11/11 17:16:12;;;;;;;;;;;;;;;2.13;84.57;100407.47;4990948;28;19968;-82
2021/11/11 17:18:38;;;;;;;;;;;;;;;2.24;84.64;100404.88;4993364;28;19968;-84
2021/11/11 17:21:03;;;;;;;;;;;;;;;2.25;84.88;100409.22;4993692;28;19925;-84
2021/11/11 17:23:35;;;;;;;;;;;;;;;2.28;84.05;100407.50;4992024;28;19926;-82
2021/11/11 17:28:31;;;;;;;;;;;;;;;2.23;84.02;100403.97;4993299;28;19918;-83
2021/11/11 17:31:00;;;;;;;;;;;;;;;2.39;83.80;100410.09;4992482;28;20013;-83
2021/11/11 17:33:26;;;;;;;;;;;;;;;2.18;83.58;100403.97;4993741;28;19918;-83
2021/11/11 17:35:51;;;;;;;;;;;;;;;2.18;83.86;100400.50;4992514;28;20289;-84
2021/11/11 17:38:17;;;;;;;;;;;;;;;2.25;83.76;100402.25;4992319;28;19914;-83
2021/11/11 17:40:43;;;;;;;;;;;;;;;2.33;83.65;100400.53;5000657;28;19918;-84
2021/11/11 17:43:09;;;;;;;;;;;;;;;2.15;83.42;100390.03;4993408;28;19964;-83
2021/11/11 17:45:50;;;;;;;;;;;;;;;2.14;83.51;100393.53;4992128;28;19957;-83
2021/11/11 17:48:16;;;;;;;;;;;;;;;2.39;83.57;100399.63;4991748;28;19964;-83
2021/11/11 17:50:44;;;;;;;;;;;;;;;2.22;83.20;100391.81;4993368;28;19949;-82
2021/11/11 17:53:11;;;;;;;;;;;;;;;2.24;83.51;100392.66;4991870;28;19945;-83
2021/11/11 17:55:46;;;;;;;;;;;;;;;2.25;83.28;100390.91;4992066;28;19960;-83
2021/11/11 17:58:11;;;;;;;;;;;;;;;2.34;83.16;100389.16;4991687;28;19918;-84
2021/11/11 18:00:38;;;;;;;;;;;;;;;2.31;82.98;100393.53;4991802;28;19929;-84
2021/11/11 18:03:04;;;;;;;;;;;;;;;2.26;82.77;100388.28;4991283;28;19925;-84
2021/11/11 18:05:31;;;;;;;;;;;;;;;2.28;82.88;100383.97;4993194;28;20349;-84
2021/11/11 18:08:12;;;;;;;;;;;;;;;2.36;82.83;100384.84;4991927;28;19921;-82
2021/11/11 18:10:37;;;;;;;;;;;;;;;2.32;82.42;100387.44;4993328;28;20266;-82
2021/11/11 18:13:04;;;;;;;;;;;;;;;2.35;82.63;100385.69;4992978;28;19940;-83
2021/11/11 18:15:34;;;;;;;;;;;;;;;2.30;82.56;100390.06;4991689;28;19921;-84
2021/11/11 18:18:00;;;;;;;;;;;;;;;2.29;82.35;100385.69;4993074;28;19918;-84
2021/11/11 18:20:26;;;;;;;;;;;;;;;2.32;82.55;100387.44;4992989;28;19933;-84
2021/11/11 18:22:52;;;;;;;;;;;;;;;2.44;82.60;100382.22;4992965;28;19918;-83
2021/11/11 18:25:17;;;;;;;;;;;;;;;2.44;82.10;100379.59;4992759;28;19926;-84
2021/11/11 18:27:44;;;;;;;;;;;;;;;2.39;81.68;100383.09;4992578;28;19918;-83
2021/11/11 18:32:47;;;;;;;;;;;;;;;2.43;81.13;100390.06;4992846;28;19924;-85
2021/11/11 18:35:22;;;;;;;;;;;;;;;2.43;81.52;100384.84;4992094;28;19922;-82
2021/11/11 18:37:50;;;;;;;;;;;;;;;2.49;81.03;100384.81;4990785;28;19922;-82
2021/11/11 18:40:15;;;;;;;;;;;;;;;2.53;80.74;100381.34;4991367;28;20000;-84
2021/11/11 18:42:40;;;;;;;;;;;;;;;2.58;80.73;100374.34;4991360;28;20012;-82
2021/11/11 18:45:08;;;;;;;;;;;;;;;2.56;80.60;100376.09;4989513;28;20361;-83
2021/11/11 18:47:43;;;;;;;;;;;;;;;2.46;80.52;100371.75;4999451;28;19933;-83
2021/11/11 18:50:09;;;;;;;;;;;;;;;2.58;80.84;100371.72;4990718;28;20897;-82
2021/11/11 18:52:34;;;;;;;;;;;;;;;2.60;80.32;100367.38;4992358;28;19918;-82
2021/11/11 18:54:59;;;;;;;;;;;;;;;2.65;80.01;100365.63;4985135;28;20024;-83
2021/11/11 18:57:25;;;;;;;;;;;;;;;2.71;79.53;100369.97;4986721;28;19972;-83
2021/11/11 18:59:52;;;;;;;;;;;;;;;2.57;79.49;100375.25;4991189;28;19921;-83
2021/11/11 19:02:18;;;;;;;;;;;;;;;2.65;79.65;100370.88;4991020;28;19976;-83
2021/11/11 19:04:59;;;;;;;;;;;;;;;2.67;79.41;100369.09;4991124;28;19928;-84
2021/11/11 19:07:31;;;;;;;;;;;;;;;2.61;79.19;100365.63;4992370;28;19918;-82
2021/11/11 19:09:56;;;;;;;;;;;;;;;2.65;79.04;100373.47;4992558;28;19918;-84
2021/11/11 19:12:48;;;;;;;;;;;;;;;2.64;78.72;100370.88;4990834;28;19965;-84
2021/11/11 19:15:09;;;;;;;;;;;;;;;2.69;78.59;100369.09;4990852;28;19925;-83
2021/11/11 19:17:47;;;;;;;;;;;;;;;2.65;78.46;100368.25;4998917;28;19991;-83
2021/11/11 19:20:13;;;;;;;;;;;;;;;2.66;78.35;100366.50;4990471;28;19922;-82
2021/11/11 19:22:39;;;;;;;;;;;;;;;2.64;78.43;100370.88;4990870;28;19944;-84
2021/11/11 19:25:06;;;;;;;;;;;;;;;2.67;78.21;100363.88;4992420;28;20365;-84
2021/11/11 19:27:31;;;;;;;;;;;;;;;2.70;77.97;100363.00;4990148;28;19972;-83
2021/11/11 19:29:56;;;;;;;;;;;;;;;2.64;77.91;100369.09;4989502;28;19921;-84
2021/11/11 19:32:23;;;;;;;;;;;;;;;2.69;77.75;100363.88;4990883;28;19986;-83
2021/11/11 19:34:54;;;;;;;;;;;;;;;2.65;77.48;100376.09;4991973;28;20404;-84
2021/11/11 19:45:43;;;;;;;;;;;;;;;2.68;77.06;100372.59;4982921;28;19929;-84
2021/11/11 19:51:24;;;;;;;;;;;;;;;2.72;76.90;100369.97;4995699;28;19922;-83
2021/11/11 19:53:36;;;;;;;;;;;;;;;2.77;77.10;100366.47;4981530;28;19922;-84
2021/11/11 20:11:41;;;;;;;;;;;;;;;2.78;76.30;100353.41;4994729;28;20001;-82
2021/11/11 20:16:57;;;;;;;;;;;;;;;2.81;76.17;100344.66;4995176;28;20324;-84
2021/11/11 20:20:18;;;;;;;;;;;;;;;2.84;76.19;100350.78;4995309;28;20365;-82
2021/11/11 20:40:51;;;;;;;;;;;;;;;2.97;75.03;100350.72;4994945;28;19975;-84
2021/11/11 20:59:15;;;;;;;;;;;;;;;3.09;74.71;100334.97;4993662;28;20448;-83
2021/11/11 21:02:02;;;;;;;;;;;;;;;3.07;74.54;100336.75;4993801;28;19921;-82
2021/11/11 21:04:28;;;;;;;;;;;;;;;3.08;75.09;100331.50;4993631;28;19972;-84
2021/11/11 21:15:04;;;;;;;;;;;;;;;3.01;74.60;100340.22;4992363;28;19991;-84
2021/11/11 21:17:48;;;;;;;;;;;;;;;3.09;75.07;100335.88;4993198;28;19929;-83
2021/11/11 21:20:15;;;;;;;;;;;;;;;3.16;74.83;100326.25;4993769;28;20324;-85
2021/11/11 21:22:41;;;;;;;;;;;;;;;3.19;74.74;100330.56;4993831;28;19926;-83
2021/11/11 21:25:10;;;;;;;;;;;;;;;3.17;74.76;100329.72;4993429;28;20429;-83
2021/11/11 21:27:38;;;;;;;;;;;;;;;3.18;74.53;100324.47;4993412;28;19922;-83
2021/11/11 21:30:05;;;;;;;;;;;;;;;3.15;74.18;100324.47;4992449;28;20778;-84
2021/11/11 21:32:31;;;;;;;;;;;;;;;3.13;74.32;100318.38;4993134;28;20610;-84
2021/11/11 21:42:22;;;;;;;;;;;;;;;3.30;74.17;100312.19;4993365;28;19943;-84
2021/11/11 21:44:48;;;;;;;;;;;;;;;3.26;73.99;100306.09;4991742;28;20064;-81
2021/11/11 21:47:13;;;;;;;;;;;;;;;3.28;73.98;100309.59;4993539;28;20325;-84
2021/11/11 21:49:39;;;;;;;;;;;;;;;3.27;73.83;100311.34;4993557;28;20053;-84
2021/11/11 21:52:06;;;;;;;;;;;;;;;3.29;73.59;100313.97;4993368;28;19918;-83
2021/11/11 21:54:37;;;;;;;;;;;;;;;3.33;73.84;100310.44;4991344;28;19964;-84
2021/11/11 21:57:57;;;;;;;;;;;;;;;3.34;73.89;100309.56;4992800;28;20498;-82
2021/11/11 22:02:38;;;;;;;;;;;;;;;3.35;73.99;100310.41;4992651;28;19973;-83
2021/11/11 22:29:04;;;;;;;;;;;;;;;3.50;74.19;100286.75;4992312;28;19960;-83
2021/11/11 22:34:15;;;;;;;;;;;;;;;3.51;74.08;100287.63;4992449;28;19924;-84
2021/11/11 22:36:41;;;;;;;;;;;;;;;3.49;74.12;100289.41;4991144;28;20385;-83
2021/11/11 22:39:06;;;;;;;;;;;;;;;3.49;74.33;100292.00;4992554;28;19946;-83
2021/11/11 22:41:33;;;;;;;;;;;;;;;3.53;74.49;100293.75;4992242;28;20321;-84
2021/11/11 22:43:59;;;;;;;;;;;;;;;3.53;74.48;100292.00;4990775;28;20288;-82
2021/11/11 22:46:24;;;;;;;;;;;;;;;3.52;74.67;100292.00;4988960;28;20517;-84
2021/11/11 22:48:51;;;;;;;;;;;;;;;3.53;74.40;100286.75;4990940;28;19957;-83
2021/11/11 22:51:17;;;;;;;;;;;;;;;3.56;74.80;100285.88;4990672;28;19926;-82
2021/11/11 22:56:36;;;;;;;;;;;;;;;3.55;74.85;100279.75;4992665;28;20421;-83
2021/11/11 22:59:15;;;;;;;;;;;;;;;3.53;74.67;100283.28;4991124;28;19950;-84
2021/11/11 23:02:08;;;;;;;;;;;;;;;3.54;74.89;100282.38;4990972;28;19929;-83
2021/11/11 23:18:08;;;;;;;;;;;;;;;3.66;79.12;100274.44;4992088;28;19933;-84
2021/11/11 23:20:51;;;;;;;;;;;;;;;3.66;80.04;100274.44;4992107;28;20072;-82
2021/11/11 23:34:03;;;;;;;;;;;;;;;3.67;80.82;100268.31;4995629;28;19972;-83
2021/11/11 23:36:29;;;;;;;;;;;;;;;3.66;81.08;100258.72;4993953;28;19961;-83
2021/11/11 23:38:55;;;;;;;;;;;;;;;3.72;81.16;100263.03;5000932;28;19925;-82
2021/11/11 23:41:20;;;;;;;;;;;;;;;3.69;81.19;100257.84;4994324;28;20012;-81
